Time;durP1;ratioP1;P1;durP2;ratioP2;P2;SDS_P1;SDS_P2;PMS_P1;PMS_P2;Temp;Humidity;BMP_temperature;BMP_pressure;BME280_temperature;BME280_humidity;BME280_pressure;Samples;Min_cycle;Max_cycle;Signal;HPM_P1;HPM_P2
2021/04/05 00:00:24;;;;;;;12.10;8.40;;;;;;;3.26;63.45;99078.89;1796651;79;21867;-42
2021/04/05 00:02:52;;;;;;;12.73;7.47;;;;;;;3.27;63.55;99085.28;1802059;79;21375;-42
2021/04/05 00:05:36;;;;;;;11.43;8.10;;;;;;;3.24;63.49;99085.92;1784950;79;21028;-42
2021/04/05 00:08:06;;;;;;;12.07;7.90;;;;;;;3.23;63.21;99080.32;1783700;79;21149;-42
2021/04/05 00:10:46;;;;;;;11.10;7.75;;;;;;;3.22;63.06;99080.63;1784880;79;21019;-42
2021/04/05 00:13:23;;;;;;;11.73;7.50;;;;;;;3.20;62.95;99080.94;1785045;79;21154;-42
2021/04/05 00:15:51;;;;;;;14.28;6.92;;;;;;;3.21;62.83;99079.05;1786830;79;22507;-42
2021/04/05 00:18:21;;;;;;;11.80;7.30;;;;;;;3.19;62.72;99077.26;1798083;79;21401;-42
2021/04/05 00:20:56;;;;;;;10.28;7.22;;;;;;;2.79;62.45;99017.75;1788602;79;21188;-42
2021/04/05 00:23:26;;;;;;;12.37;7.58;;;;;;;3.17;62.38;99070.08;1780950;80;21563;-42
2021/04/05 00:25:54;;;;;;;13.98;7.55;;;;;;;3.14;62.25;99068.05;1728545;81;21197;-42
2021/04/05 00:28:22;;;;;;;12.00;6.72;;;;;;;3.13;62.10;99060.56;1743875;81;23530;-42
2021/04/05 00:30:51;;;;;;;12.73;7.80;;;;;;;3.11;61.93;99053.93;1765106;80;21039;-42
2021/04/05 00:33:19;;;;;;;11.08;6.83;;;;;;;3.11;61.97;99060.62;1754070;80;21117;-42
2021/04/05 00:35:48;;;;;;;11.08;7.10;;;;;;;3.09;61.99;99060.17;1746270;80;22177;-42
2021/04/05 00:38:16;;;;;;;10.28;6.97;;;;;;;3.06;62.29;99056.22;1742757;80;21189;-42
2021/04/05 00:40:49;;;;;;;10.48;6.83;;;;;;;3.03;62.43;99048.28;1764562;80;21289;-42
2021/04/05 00:43:18;;;;;;;11.53;7.70;;;;;;;3.02;62.50;99047.25;1751190;80;21189;-42
2021/04/05 00:45:46;;;;;;;14.05;8.60;;;;;;;2.98;62.44;99043.64;1755406;79;21030;-41
2021/04/05 00:48:15;;;;;;;14.55;8.93;;;;;;;2.94;62.74;99046.17;1755725;80;21149;-42
2021/04/05 00:50:56;;;;;;;14.70;9.08;;;;;;;2.88;63.17;99047.42;1735049;81;21158;-42
2021/04/05 00:53:26;;;;;;;13.18;8.90;;;;;;;2.85;63.48;99042.72;1771662;80;21379;-42
2021/04/05 00:55:54;;;;;;;13.58;8.48;;;;;;;2.84;63.65;99043.02;1732053;81;21074;-42
2021/04/05 00:58:22;;;;;;;14.85;9.68;;;;;;;2.86;63.71;99048.83;1769866;80;21153;-42
2021/04/05 01:00:55;;;;;;;19.07;9.85;;;;;;;2.88;63.70;99042.62;1759987;80;21195;-42
2021/04/05 01:03:26;;;;;;;16.15;10.03;;;;;;;2.86;63.70;99036.23;1736176;81;21212;-42
2021/04/05 01:05:58;;;;;;;14.65;9.70;;;;;;;2.84;63.67;99034.99;1786677;80;21276;-42
2021/04/05 01:08:26;;;;;;;15.60;9.58;;;;;;;2.82;63.61;99026.48;1754904;80;21184;-42
2021/04/05 01:10:56;;;;;;;16.15;9.63;;;;;;;2.80;63.59;99023.34;1732468;81;21027;-42
2021/04/05 01:13:24;;;;;;;13.15;8.48;;;;;;;2.81;63.48;99025.69;1758270;80;21145;-42
2021/04/05 01:15:52;;;;;;;15.40;9.48;;;;;;;2.82;63.70;99024.59;1732326;81;21501;-42
2021/04/05 01:18:21;;;;;;;15.60;8.40;;;;;;;2.85;63.61;99025.86;1754966;81;21200;-42
2021/04/05 01:20:49;;;;;;;13.53;8.65;;;;;;;2.86;63.32;99026.86;1758373;80;21168;-42
2021/04/05 01:23:19;;;;;;;14.78;8.30;;;;;;;2.84;63.25;99027.75;1753297;81;21168;-42
2021/04/05 01:25:47;;;;;;;11.53;7.85;;;;;;;2.84;63.15;99025.08;1730126;81;21749;-41
2021/04/05 01:28:17;;;;;;;12.13;7.67;;;;;;;2.82;63.08;99023.25;1735604;81;21162;-42
2021/04/05 01:30:48;;;;;;;15.38;8.25;;;;;;;2.82;63.11;99023.25;1780469;80;22219;-42
2021/04/05 01:33:39;;;;;;;11.38;7.85;;;;;;;2.82;63.12;99025.14;1766795;80;21202;-42
2021/04/05 01:36:11;;;;;;;12.85;8.00;;;;;;;2.80;63.00;99025.47;1761352;80;20947;-42
2021/04/05 01:38:46;;;;;;;11.78;7.42;;;;;;;2.71;63.59;99021.98;1732441;81;21121;-41
2021/04/05 01:41:24;;;;;;;13.72;7.40;;;;;;;2.62;63.78;99014.52;1757654;80;21173;-42
2021/04/05 01:43:52;;;;;;;11.63;6.90;;;;;;;2.53;63.95;99015.06;1734117;81;22291;-42
2021/04/05 01:46:20;;;;;;;13.30;7.03;;;;;;;2.50;64.17;99014.38;1770968;80;21148;-42
2021/04/05 01:48:49;;;;;;;12.25;7.35;;;;;;;2.40;64.47;99007.44;1741799;80;21181;-42
2021/04/05 01:51:20;;;;;;;11.60;7.15;;;;;;;2.34;64.63;99002.55;1756093;81;21145;-42
2021/04/05 01:53:51;;;;;;;11.93;7.33;;;;;;;2.35;64.62;99002.79;1733956;81;21166;-42
2021/04/05 01:56:19;;;;;;;12.68;7.70;;;;;;;2.41;64.49;99004.22;1784475;79;22181;-42
2021/04/05 01:58:49;;;;;;;13.35;7.95;;;;;;;2.44;64.64;99008.93;1787918;79;21581;-42
2021/04/05 02:01:24;;;;;;;11.83;7.58;;;;;;;2.44;64.68;98997.68;1793733;79;21114;-42
2021/04/05 02:03:52;;;;;;;11.40;7.75;;;;;;;2.40;64.68;99005.31;1786293;79;21181;-42
2021/04/05 02:06:28;;;;;;;13.35;8.28;;;;;;;2.33;64.73;98999.08;1806901;79;21098;-42
2021/04/05 02:08:59;;;;;;;11.90;7.85;;;;;;;2.30;64.80;99003.73;1815960;78;20987;-42
2021/04/05 02:11:31;;;;;;;12.60;8.38;;;;;;;2.25;64.98;99007.11;1812942;79;21147;-41
2021/04/05 02:14:03;;;;;;;14.85;8.80;;;;;;;2.15;65.15;99002.30;1784053;79;21015;-42
2021/04/05 02:16:31;;;;;;;14.60;8.15;;;;;;;2.09;65.30;98999.52;1795880;79;21165;-42
2021/04/05 02:19:00;;;;;;;14.73;8.65;;;;;;;2.09;65.45;99002.20;1791341;79;21113;-41
2021/04/05 02:21:29;;;;;;;12.98;8.20;;;;;;;2.08;65.50;99001.95;1796222;79;21355;-42
2021/04/05 02:24:04;;;;;;;13.93;7.95;;;;;;;2.07;65.66;98999.06;1815291;79;21114;-42
2021/04/05 02:26:35;;;;;;;13.38;8.65;;;;;;;2.06;65.69;99000.16;1789900;79;20999;-42
2021/04/05 02:29:04;;;;;;;13.18;8.05;;;;;;;2.07;65.69;98996.94;1793750;78;21142;-42
2021/04/05 02:31:34;;;;;;;19.52;8.08;;;;;;;2.11;65.70;99001.35;1786246;79;21161;-42
2021/04/05 02:34:05;;;;;;;12.10;8.08;;;;;;;2.15;65.57;98995.61;1791720;79;21154;-42
2021/04/05 02:36:33;;;;;;;10.90;7.17;;;;;;;2.22;65.19;98995.16;1797772;79;21163;-42
2021/04/05 02:39:05;;;;;;;7.62;5.12;;;;;;;2.26;64.78;98988.63;1807383;79;21585;-42
2021/04/05 02:41:37;;;;;;;11.85;7.87;;;;;;;2.32;64.26;98986.83;1783985;80;21691;-42
2021/04/05 02:44:06;;;;;;;11.65;7.42;;;;;;;2.35;63.68;98996.10;1784165;79;21110;-42
2021/04/05 02:46:36;;;;;;;13.32;7.37;;;;;;;2.37;63.32;98991.23;1792679;79;21524;-41
2021/04/05 02:49:08;;;;;;;11.18;7.65;;;;;;;2.37;62.99;98987.98;1809882;79;21272;-42
2021/04/05 02:51:46;;;;;;;10.03;6.72;;;;;;;2.37;62.89;98987.98;1810392;79;21114;-42
2021/04/05 02:54:18;;;;;;;11.60;7.00;;;;;;;2.38;62.61;98978.87;1791639;79;21145;-42
2021/04/05 02:56:46;;;;;;;13.75;7.50;;;;;;;1.99;62.38;98927.64;1772391;79;21126;-42
2021/04/05 02:59:17;;;;;;;11.55;7.10;;;;;;;2.35;62.50;98986.74;1793032;79;21233;-42
2021/04/05 03:01:45;;;;;;;9.90;6.72;;;;;;;2.35;62.47;98990.20;1798678;79;21166;-41
2021/04/05 03:04:14;;;;;;;10.85;6.90;;;;;;;2.33;62.17;98988.38;1788742;79;21134;-41
2021/04/05 03:06:43;;;;;;;12.03;7.30;;;;;;;2.32;61.78;98982.03;1791647;79;21150;-41
2021/04/05 03:09:11;;;;;;;12.40;6.92;;;;;;;2.30;61.55;98975.64;1797781;79;21185;-41
2021/04/05 03:11:42;;;;;;;11.50;6.62;;;;;;;2.29;61.23;98969.27;1787171;79;21379;-42
2021/04/05 03:14:09;;;;;;;;;;;;;;;2.26;60.96;98967.23;1807634;79;21173;-41
2021/04/05 03:16:39;;;;;;;8.03;5.05;;;;;;;2.23;60.96;98971.30;1789154;79;20338;-42
2021/04/05 03:19:07;;;;;;;;;;;;;;;2.10;62.15;98964.22;1791491;79;21412;-42
2021/04/05 03:21:36;;;;;;;9.75;6.10;;;;;;;1.96;62.99;98964.91;1808368;79;20445;-42
2021/04/05 03:24:06;;;;;;;9.98;5.95;;;;;;;1.79;63.89;98963.55;1789178;79;21207;-42
2021/04/05 03:26:34;;;;;;;10.38;5.62;;;;;;;1.79;64.20;98961.67;1791216;79;20980;-42
2021/04/05 03:29:02;;;;;;;7.87;5.15;;;;;;;1.79;64.57;98961.67;1798024;79;21055;-42
2021/04/05 03:31:31;;;;;;;8.68;5.50;;;;;;;1.68;65.11;98952.36;1785591;79;21158;-42
2021/04/05 03:34:19;;;;;;;9.13;5.47;;;;;;;1.69;65.35;98961.95;1793739;79;21146;-42
2021/04/05 03:36:57;;;;;;;10.53;5.37;;;;;;;1.70;65.22;98961.62;1794721;79;23507;-41
2021/04/05 03:39:25;;;;;;;9.65;5.95;;;;;;;1.34;65.48;98896.16;1796201;79;21125;-42
2021/04/05 03:42:11;;;;;;;8.65;5.12;;;;;;;1.77;65.47;98956.37;1784667;80;21465;-42
2021/04/05 03:44:53;;;;;;;8.13;5.33;;;;;;;1.83;65.40;98963.95;1785600;79;21138;-42
2021/04/05 03:47:42;;;;;;;9.40;4.87;;;;;;;1.75;65.71;98954.01;1789980;79;21153;-41
2021/04/05 03:50:35;;;;;;;9.58;5.40;;;;;;;1.66;65.98;98962.01;1801473;79;21451;-42
2021/04/05 03:53:32;;;;;;;7.00;4.78;;;;;;;1.57;66.47;98961.75;1799791;79;21051;-41
2021/04/05 03:56:04;;;;;;;6.92;5.10;;;;;;;1.47;66.71;98962.81;1785834;79;20967;-42
2021/04/05 03:58:32;;;;;;;9.63;5.58;;;;;;;1.33;67.09;98962.13;1784743;79;21169;-41
2021/04/05 04:01:07;;;;;;;7.42;5.35;;;;;;;1.29;67.49;98968.64;1789579;79;21161;-42
2021/04/05 04:03:53;;;;;;;8.80;5.40;;;;;;;1.23;67.84;98967.19;1783790;80;21403;-41
2021/04/05 04:06:07;;;;;;;10.58;6.17;;;;;;;1.16;68.16;98966.83;1805673;79;21146;-42
2021/04/05 04:08:42;;;;;;;13.00;5.92;;;;;;;1.13;68.30;98962.12;1814695;79;21162;-41
2021/04/05 04:11:09;;;;;;;14.15;6.20;;;;;;;1.12;68.22;98965.88;1803547;79;21122;-42
2021/04/05 04:13:42;;;;;;;10.65;5.90;;;;;;;1.10;68.38;98964.08;1732791;79;21202;-42
2021/04/05 04:16:10;;;;;;;10.18;6.53;;;;;;;1.06;68.67;98964.45;1784658;79;21608;-42
2021/04/05 04:18:39;;;;;;;9.18;5.70;;;;;;;1.02;68.66;98965.34;1785589;79;21881;-41
2021/04/05 04:21:11;;;;;;;8.78;5.67;;;;;;;0.97;68.74;98970.27;1787852;79;21807;-43
2021/04/05 04:23:39;;;;;;;8.10;5.62;;;;;;;1.02;68.65;98956.00;1785056;79;21043;-43
2021/04/05 04:26:07;;;;;;;10.55;5.87;;;;;;;1.01;68.74;98955.23;1803248;79;21738;-42
2021/04/05 04:28:35;;;;;;;9.15;5.97;;;;;;;1.06;68.86;98947.10;1801718;79;21196;-43
2021/04/05 04:31:04;;;;;;;8.03;5.83;;;;;;;1.12;68.89;98943.73;1784922;79;21596;-42
2021/04/05 04:33:33;;;;;;;9.98;6.33;;;;;;;1.20;68.79;98937.12;1792289;79;21166;-42
2021/04/05 04:36:03;;;;;;;9.00;6.00;;;;;;;1.25;68.63;98940.20;1797854;79;21141;-43
2021/04/05 04:38:31;;;;;;;10.93;6.17;;;;;;;0.90;68.56;98872.52;1789256;79;21141;-43
2021/04/05 04:41:00;;;;;;;13.05;6.12;;;;;;;1.39;68.38;98934.74;1805854;79;21358;-43
2021/04/05 04:43:28;;;;;;;9.08;5.90;;;;;;;1.48;68.26;98930.22;1798655;79;21161;-43
2021/04/05 04:45:56;;;;;;;10.18;5.70;;;;;;;1.59;68.18;98930.17;1789277;79;21035;-44
2021/04/05 04:48:25;;;;;;;12.88;6.60;;;;;;;1.66;68.12;98929.16;1785505;79;21195;-44
2021/04/05 04:50:53;;;;;;;8.83;5.97;;;;;;;1.73;68.08;98925.49;1793182;79;21158;-43
2021/04/05 04:53:21;;;;;;;12.33;6.40;;;;;;;1.80;68.11;98922.34;1788384;79;21793;-44
2021/04/05 04:55:49;;;;;;;10.98;6.00;;;;;;;1.84;68.22;98933.43;1802791;79;20980;-43
2021/04/05 04:58:17;;;;;;;8.50;5.90;;;;;;;1.84;68.37;98918.73;1800457;79;21150;-43
2021/04/05 05:00:45;;;;;;;7.55;5.53;;;;;;;1.84;68.65;98921.98;1780081;79;21087;-44
2021/04/05 05:03:13;;;;;;;8.50;5.78;;;;;;;1.99;68.76;98918.83;1810009;79;21193;-43
2021/04/05 05:05:42;;;;;;;8.10;5.30;;;;;;;2.11;68.94;98915.78;1790624;79;21192;-43
2021/04/05 05:08:09;;;;;;;12.35;5.60;;;;;;;2.16;69.22;98918.30;1799278;79;21484;-43
2021/04/05 05:10:38;;;;;;;8.70;5.60;;;;;;;2.18;69.50;98916.09;1784746;80;21134;-43
2021/04/05 05:13:06;;;;;;;7.58;5.35;;;;;;;2.19;69.76;98914.99;1795515;79;21131;-44
2021/04/05 05:15:34;;;;;;;8.00;4.83;;;;;;;2.23;70.33;98923.16;1787220;79;21143;-44
2021/04/05 05:18:03;;;;;;;10.72;4.78;;;;;;;2.32;70.39;98921.30;1799709;79;21238;-44
2021/04/05 05:20:31;;;;;;;6.57;4.70;;;;;;;2.41;70.43;98909.25;1737013;80;21158;-44
2021/04/05 05:23:01;;;;;;;8.38;4.90;;;;;;;2.48;70.67;98914.89;1788676;79;21150;-43
2021/04/05 05:25:30;;;;;;;10.23;5.30;;;;;;;2.56;70.53;98912.78;1787323;79;21558;-44
2021/04/05 05:28:05;;;;;;;7.72;4.10;;;;;;;2.65;70.49;98916.22;1799033;79;21146;-43
2021/04/05 05:30:33;;;;;;;7.20;4.60;;;;;;;2.74;70.56;98914.86;1816815;79;21145;-43
2021/04/05 05:33:08;;;;;;;7.33;4.33;;;;;;;2.82;70.56;98910.81;1791187;79;21146;-43
2021/04/05 05:35:34;;;;;;;4.70;3.77;;;;;;;2.97;70.15;98908.97;1804660;78;21145;-43
2021/04/05 05:38:04;;;;;;;6.28;4.35;;;;;;;3.13;69.67;98903.09;1784854;80;21149;-43
2021/04/05 05:40:34;;;;;;;5.97;4.40;;;;;;;3.23;69.47;98894.70;1786088;79;21087;-44
2021/04/05 05:43:21;;;;;;;6.45;4.55;;;;;;;3.35;69.39;98896.13;1785154;79;21582;-43
2021/04/05 05:46:19;;;;;;;7.00;4.28;;;;;;;3.46;69.25;98891.43;1792790;79;21169;-43
2021/04/05 05:49:15;;;;;;;8.48;4.00;;;;;;;3.60;68.94;98890.41;1794241;79;21158;-43
2021/04/05 05:52:11;;;;;;;7.42;3.77;;;;;;;3.67;68.58;98886.66;1784043;79;21150;-43
2021/04/05 05:55:24;;;;;;;7.67;4.10;;;;;;;3.75;68.10;98891.97;1778004;79;21593;-43
2021/04/05 05:58:16;;;;;;;6.83;4.08;;;;;;;3.92;68.19;98882.45;1785983;79;21403;-43
2021/04/05 06:00:52;;;;;;;7.40;4.33;;;;;;;4.09;67.51;98878.86;1796902;79;21596;-43
2021/04/05 06:03:30;;;;;;;6.03;3.87;;;;;;;4.24;67.17;98882.84;1790606;79;20984;-43
2021/04/05 06:06:25;;;;;;;5.42;3.72;;;;;;;4.36;66.93;98876.17;1791902;79;21170;-44
2021/04/05 06:09:34;;;;;;;8.58;4.08;;;;;;;4.49;66.56;98873.78;1777900;79;21166;-44
2021/04/05 06:12:07;;;;;;;6.75;3.90;;;;;;;4.62;65.89;98877.27;1804137;79;21190;-43
2021/04/05 06:14:56;;;;;;;7.12;4.05;;;;;;;4.76;65.34;98875.07;1807446;79;21214;-43
2021/04/05 06:18:01;;;;;;;6.00;3.72;;;;;;;4.88;65.09;98871.64;1780230;77;21152;-43
2021/04/05 06:20:37;;;;;;;7.53;3.98;;;;;;;5.00;64.32;98868.95;1792772;79;21396;-43
2021/04/05 06:23:38;;;;;;;6.37;4.17;;;;;;;5.13;63.70;98865.18;1778309;79;21131;-43
2021/04/05 06:26:38;;;;;;;5.15;3.45;;;;;;;5.22;63.68;98863.16;1779517;80;21185;-43
2021/04/05 06:29:35;;;;;;;6.72;3.95;;;;;;;5.35;62.46;98868.76;1788983;77;21154;-43
2021/04/05 06:32:59;;;;;;;7.20;4.00;;;;;;;5.49;61.47;98866.51;1790002;79;21039;-42
2021/04/05 06:36:12;;;;;;;6.35;3.77;;;;;;;5.58;60.93;98862.34;1789105;79;21150;-43
2021/04/05 06:39:00;;;;;;;6.45;3.83;;;;;;;5.73;60.25;98859.52;1791453;79;21154;-43
2021/04/05 06:41:40;;;;;;;6.92;3.50;;;;;;;5.94;58.56;98866.92;1804769;79;21157;-43
2021/04/05 06:44:35;;;;;;;4.95;3.45;;;;;;;6.08;58.00;98859.25;1803304;79;28259;-42
2021/04/05 06:47:44;;;;;;;5.72;2.95;;;;;;;6.26;57.38;98859.73;1781759;79;21134;-43
2021/04/05 06:50:27;;;;;;;3.95;2.45;;;;;;;6.44;54.62;98857.74;1796695;78;21146;-43
2021/04/05 06:53:27;;;;;;;3.80;2.62;;;;;;;6.63;52.57;98849.59;1789597;79;21166;-43
2021/04/05 06:55:57;;;;;;;4.65;2.92;;;;;;;6.80;51.23;98855.43;1751835;79;21374;-43
2021/04/05 06:58:38;;;;;;;;;;;;;;;6.97;51.55;98855.67;1793457;79;21680;-43
2021/04/05 07:01:30;;;;;;;5.15;3.22;;;;;;;7.13;50.39;98852.39;1742298;79;20167;-43
2021/04/05 07:04:36;;;;;;;4.42;2.47;;;;;;;7.22;50.51;98847.59;1783649;79;21162;-43
2021/04/05 07:07:37;;;;;;;4.20;2.80;;;;;;;7.35;49.04;98854.48;1793526;79;21149;-43
2021/04/05 07:10:14;;;;;;;5.17;3.08;;;;;;;7.47;48.02;98852.22;1787995;79;21414;-43
2021/04/05 07:13:03;;;;;;;5.28;2.60;;;;;;;7.56;48.78;98850.11;1784060;79;21173;-43
2021/04/05 07:15:52;;;;;;;4.97;3.25;;;;;;;7.74;47.59;98843.22;1778778;79;21039;-43
2021/04/05 07:18:53;;;;;;;4.08;3.00;;;;;;;7.94;46.84;98844.00;1786704;79;21792;-42
2021/04/05 07:21:44;;;;;;;3.72;2.42;;;;;;;8.10;45.18;98840.67;1766014;80;21198;-43
2021/04/05 07:24:37;;;;;;;3.45;2.30;;;;;;;8.21;44.25;98835.49;1765211;80;21395;-43
2021/04/05 07:27:09;;;;;;;3.83;2.08;;;;;;;8.34;45.08;98832.88;1763959;80;21542;-43
2021/04/05 07:29:50;;;;;;;2.90;2.00;;;;;;;8.52;44.07;98825.88;1740428;80;20984;-43
2021/04/05 07:32:49;;;;;;;2.60;1.70;;;;;;;8.71;42.89;98822.38;1758280;80;21138;-43
2021/04/05 07:35:44;;;;;;;4.42;1.98;;;;;;;8.83;42.84;98822.19;1763723;80;21146;-42
2021/04/05 07:38:27;;;;;;;3.77;2.05;;;;;;;9.04;42.27;98815.79;1769689;80;21274;-42
2021/04/05 07:41:06;;;;;;;5.03;1.65;;;;;;;9.29;41.20;98809.98;1749727;80;21470;-42
2021/04/05 07:44:04;;;;;;;3.65;1.60;;;;;;;9.49;39.82;98807.36;1757137;80;21179;-42
2021/04/05 07:46:44;;;;;;;3.52;1.65;;;;;;;9.55;38.94;98803.98;1763927;79;21138;-42
2021/04/05 07:49:22;;;;;;;3.17;1.80;;;;;;;9.61;39.03;98799.04;1770216;80;21158;-42
2021/04/05 07:52:32;;;;;;;2.52;1.70;;;;;;;9.73;38.89;98800.75;1763577;80;22153;-42
2021/04/05 07:55:05;;;;;;;5.80;2.52;;;;;;;9.82;39.08;98802.61;1773885;80;21063;-43
2021/04/05 07:58:01;;;;;;;3.52;2.08;;;;;;;9.89;39.34;98791.28;1781419;80;21106;-43
2021/04/05 08:00:34;;;;;;;3.95;2.37;;;;;;;9.99;38.95;98791.20;1765840;80;21106;-42
2021/04/05 08:06:06;;;;;;;4.05;2.42;;;;;;;10.18;38.10;98778.88;1833977;77;22862;-42
2021/04/05 08:08:56;;;;;;;2.37;1.80;;;;;;;10.09;38.44;98783.78;1807486;79;21872;-42
2021/04/05 08:12:03;;;;;;;3.22;2.10;;;;;;;10.06;38.60;98773.70;1749111;82;21065;-42
2021/04/05 08:14:49;;;;;;;2.55;2.20;;;;;;;10.18;38.59;98774.81;1778335;80;21574;-42
2021/04/05 08:17:37;;;;;;;2.70;1.87;;;;;;;10.38;38.06;98779.48;1775496;80;21537;-42
2021/04/05 08:20:29;;;;;;;2.95;2.20;;;;;;;10.47;38.09;98773.17;1746208;81;22085;-42
2021/04/05 08:23:27;;;;;;;2.30;1.77;;;;;;;10.65;37.71;98766.58;1750164;80;21143;-42
2021/04/05 08:26:36;;;;;;;5.53;2.20;;;;;;;10.75;38.01;98755.02;1760276;80;21387;-42
2021/04/05 08:29:33;;;;;;;2.60;1.85;;;;;;;10.87;37.15;98748.75;1769360;80;21077;-42
2021/04/05 08:32:25;;;;;;;2.87;1.87;;;;;;;10.84;35.81;98740.60;1743931;82;21654;-42
2021/04/05 08:35:20;;;;;;;3.90;1.90;;;;;;;10.68;36.26;98736.78;1765510;80;21111;-42
2021/04/05 08:38:09;;;;;;;3.22;1.50;;;;;;;10.57;37.15;98731.84;1751317;81;21143;-42
2021/04/05 08:41:22;;;;;;;2.20;1.42;;;;;;;10.61;36.90;98732.64;1747273;82;21280;-42
2021/04/05 08:44:16;;;;;;;2.33;1.60;;;;;;;10.74;36.27;98725.03;1717997;82;21195;-42
2021/04/05 08:46:44;;;;;;;2.42;1.75;;;;;;;10.75;35.93;98713.78;1725756;81;21150;-42
2021/04/05 08:49:20;;;;;;;3.45;2.05;;;;;;;10.81;36.24;98713.64;1736917;82;21209;-42
2021/04/05 08:51:55;;;;;;;3.52;2.05;;;;;;;10.90;36.18;98706.53;1702974;81;21170;-42
2021/04/05 08:54:26;;;;;;;2.27;1.45;;;;;;;11.03;36.07;98702.95;1747370;82;21201;-42
2021/04/05 08:57:05;;;;;;;6.08;1.90;;;;;;;11.15;34.93;98694.48;1752057;80;21652;-42
2021/04/05 08:59:56;;;;;;;3.17;2.00;;;;;;;11.13;35.17;98685.97;1775430;80;21548;-42
2021/04/05 09:02:50;;;;;;;2.30;1.85;;;;;;;11.08;35.14;98693.11;1748971;82;21159;-42
2021/04/05 09:05:24;;;;;;;2.55;1.85;;;;;;;11.07;35.02;98694.26;1706361;82;21542;-42
2021/04/05 09:08:07;;;;;;;2.47;1.85;;;;;;;11.00;34.82;98682.77;1795780;79;21866;-42
2021/04/05 09:10:52;;;;;;;2.55;1.50;;;;;;;10.95;34.75;98682.34;1718331;83;21184;-42
2021/04/05 09:13:28;;;;;;;2.02;1.40;;;;;;;10.96;34.05;98677.91;1795757;79;21170;-42
2021/04/05 09:16:43;;;;;;;2.37;1.35;;;;;;;11.13;33.02;98668.33;1714988;83;21087;-42
2021/04/05 09:19:43;;;;;;;2.17;1.55;;;;;;;11.31;33.17;98661.05;1790197;79;21186;-42
2021/04/05 09:22:27;;;;;;;;;;;;;;;11.40;33.02;98672.34;1763035;79;21216;-43
2021/04/05 09:25:36;;;;;;;3.05;1.65;;;;;;;11.32;33.54;98662.62;1787304;79;20271;-42
2021/04/05 09:28:39;;;;;;;1.60;1.40;;;;;;;11.09;33.51;98659.37;1714313;83;21028;-42
2021/04/05 09:31:41;;;;;;;1.65;1.40;;;;;;;10.92;33.05;98658.13;1715440;82;21197;-42
2021/04/05 09:34:35;;;;;;;2.37;1.67;;;;;;;10.78;33.05;98660.19;1778800;79;21144;-42
2021/04/05 09:37:58;;;;;;;2.45;1.67;;;;;;;10.63;33.88;98653.10;1778515;79;21210;-42
2021/04/05 09:41:04;;;;;;;3.25;1.75;;;;;;;10.57;34.58;98648.39;1691279;83;21186;-42
2021/04/05 09:43:46;;;;;;;1.98;1.50;;;;;;;10.49;34.04;98651.64;1789824;79;21020;-42
2021/04/05 09:46:27;;;;;;;2.10;1.50;;;;;;;10.48;32.54;98647.38;1778515;79;21202;-42
2021/04/05 09:49:49;;;;;;;2.02;1.40;;;;;;;10.47;32.92;98632.26;1790411;79;21577;-42
2021/04/05 09:52:52;;;;;;;1.70;1.40;;;;;;;10.44;33.53;98627.60;1716413;83;21356;-42
2021/04/05 09:55:28;;;;;;;3.35;2.00;;;;;;;10.26;34.06;98632.11;1727031;82;21151;-42
2021/04/05 09:58:24;;;;;;;2.40;1.87;;;;;;;10.04;35.36;98627.04;1777288;79;21051;-42
2021/04/05 10:00:59;;;;;;;2.83;1.87;;;;;;;9.94;35.76;98639.33;1775420;79;21122;-42
2021/04/05 10:03:26;;;;;;;5.50;1.60;;;;;;;9.90;36.85;98627.69;1772391;79;21171;-42
2021/04/05 10:05:55;;;;;;;2.08;1.72;;;;;;;9.92;36.35;98614.54;1801406;79;23501;-42
2021/04/05 10:08:27;;;;;;;1.60;1.20;;;;;;;9.95;37.03;98610.33;1738234;82;21602;-42
2021/04/05 10:10:56;;;;;;;1.92;1.40;;;;;;;10.06;34.86;98609.85;1766638;81;21139;-42
2021/04/05 10:13:24;;;;;;;2.55;1.07;;;;;;;10.10;33.81;98604.45;1736421;82;21171;-42
2021/04/05 10:15:57;;;;;;;1.98;1.42;;;;;;;10.07;32.91;98600.55;1733490;82;21187;-42
2021/04/05 10:18:25;;;;;;;2.35;1.67;;;;;;;9.98;32.99;98609.56;1737083;82;21884;-42
2021/04/05 10:20:54;;;;;;;5.10;1.92;;;;;;;9.91;34.88;98604.88;1735363;81;21155;-42
2021/04/05 10:23:24;;;;;;;3.20;1.72;;;;;;;9.85;35.83;98599.59;1737413;82;21153;-42
2021/04/05 10:26:00;;;;;;;2.67;1.92;;;;;;;9.75;35.53;98598.92;1758028;81;21208;-42
2021/04/05 10:28:30;;;;;;;2.98;1.60;;;;;;;9.66;36.01;98604.43;1735615;82;21181;-42
2021/04/05 10:31:02;;;;;;;3.67;2.40;;;;;;;9.56;36.07;98607.23;1757540;81;21386;-42
2021/04/05 10:33:37;;;;;;;4.72;2.37;;;;;;;9.52;36.75;98601.01;1764431;81;21156;-42
2021/04/05 10:36:08;;;;;;;3.62;2.40;;;;;;;9.47;37.02;98598.06;1726104;80;21183;-42
2021/04/05 10:38:36;;;;;;;;;;;;;;;9.42;37.43;98594.33;1795790;79;21162;-42
2021/04/05 10:41:07;;;;;;;1.40;1.20;;;;;;;9.39;32.32;98588.89;1777904;79;20226;-42
2021/04/05 10:43:53;;;;;;;3.67;1.30;;;;;;;9.29;31.87;98584.13;1786062;79;21214;-42
2021/04/05 10:46:30;;;;;;;3.42;1.70;;;;;;;9.34;32.51;98582.45;1788310;79;21614;-42
2021/04/05 10:49:16;;;;;;;6.20;3.58;;;;;;;9.39;33.35;98586.19;1801230;79;21040;-42
2021/04/05 10:51:51;;;;;;;4.67;3.00;;;;;;;9.43;33.15;98588.34;1800653;79;21145;-42
2021/04/05 10:54:42;;;;;;;2.58;2.05;;;;;;;9.47;33.84;98572.92;1790932;78;21156;-42
2021/04/05 10:57:14;;;;;;;2.42;1.32;;;;;;;9.54;34.03;98565.65;1793243;79;21213;-42
2021/04/05 10:59:51;;;;;;;2.05;1.32;;;;;;;9.63;30.80;98564.59;1778649;79;20965;-42
2021/04/05 11:02:57;;;;;;;1.95;1.60;;;;;;;9.67;30.52;98561.34;1781667;79;21129;-42
2021/04/05 11:05:25;;;;;;;1.95;1.45;;;;;;;9.72;31.69;98559.64;1785009;79;21020;-42
2021/04/05 11:07:57;;;;;;;2.75;1.90;;;;;;;9.73;33.39;98545.72;1792795;79;21150;-42
2021/04/05 11:10:31;;;;;;;3.33;2.10;;;;;;;9.87;33.18;98548.58;1787075;79;21613;-44
2021/04/05 11:13:10;;;;;;;2.15;1.47;;;;;;;10.08;33.75;98543.89;1715982;83;21135;-44
2021/04/05 11:15:42;;;;;;;1.90;1.70;;;;;;;10.51;32.78;98535.50;1789504;79;21167;-45
2021/04/05 11:18:14;;;;;;;2.87;1.87;;;;;;;10.99;32.50;98540.18;1717697;83;21198;-44
2021/04/05 11:20:44;;;;;;;3.35;1.90;;;;;;;11.41;32.08;98533.34;1779162;80;21572;-45
2021/04/05 11:23:16;;;;;;;3.15;1.80;;;;;;;11.81;31.67;98519.48;1789163;80;21371;-45
2021/04/05 11:25:54;;;;;;;1.98;1.62;;;;;;;12.26;30.92;98519.23;1789837;79;21178;-44
2021/04/05 11:28:29;;;;;;;2.67;2.00;;;;;;;12.51;30.63;98513.75;1716363;83;21059;-44
2021/04/05 11:31:09;;;;;;;2.60;1.75;;;;;;;12.79;30.29;98509.59;1782736;79;21178;-45
2021/04/05 11:33:48;;;;;;;2.20;1.65;;;;;;;13.00;30.36;98504.06;1772268;79;21171;-45
2021/04/05 11:36:15;;;;;;;2.12;1.77;;;;;;;13.17;30.03;98513.33;1779433;79;21363;-45
2021/04/05 11:38:47;;;;;;;2.00;1.50;;;;;;;13.48;29.44;98494.68;1714938;83;21238;-45
2021/04/05 11:41:18;;;;;;;2.42;1.67;;;;;;;13.83;29.21;98488.78;1782489;79;20980;-44
2021/04/05 11:43:49;;;;;;;2.33;1.82;;;;;;;14.09;28.60;98496.33;1714947;83;21100;-45
2021/04/05 11:46:18;;;;;;;2.75;1.87;;;;;;;14.18;28.79;98479.53;1690289;82;21638;-45
2021/04/05 11:48:52;;;;;;;3.37;2.17;;;;;;;14.06;28.31;98478.06;1783202;80;21249;-45
2021/04/05 11:51:23;;;;;;;2.95;1.80;;;;;;;13.80;28.29;98478.09;1746319;79;21042;-45
2021/04/05 11:53:58;;;;;;;2.90;2.00;;;;;;;13.41;28.87;98481.69;1794061;79;22069;-45
2021/04/05 11:56:29;;;;;;;3.72;2.02;;;;;;;12.97;29.23;98475.52;1781396;79;21181;-45
2021/04/05 11:59:11;;;;;;;2.20;1.60;;;;;;;12.61;29.22;98474.30;1718688;83;21163;-45
2021/04/05 12:02:02;;;;;;;2.27;1.90;;;;;;;12.47;29.89;98467.56;1776172;79;23514;-45
2021/04/05 12:04:43;;;;;;;2.15;1.72;;;;;;;12.49;29.97;98468.53;1786860;79;21159;-44
2021/04/05 12:07:14;;;;;;;2.85;1.52;;;;;;;12.58;30.49;98463.45;1743712;81;21537;-43
2021/04/05 12:09:50;;;;;;;3.50;1.85;;;;;;;12.48;29.56;98457.46;1705081;83;21640;-43
2021/04/05 12:12:39;;;;;;;3.55;1.72;;;;;;;12.25;30.07;98460.61;1716138;83;21648;-43
2021/04/05 12:15:11;;;;;;;;;;;;;;;12.05;30.08;98460.26;1751799;82;21640;-43
2021/04/05 12:17:38;;;;;;;2.85;1.65;;;;;;;11.97;30.71;98456.59;1718482;82;28292;-43
2021/04/05 12:20:09;;;;;;;3.02;1.65;;;;;;;11.86;30.65;98443.63;1718487;82;21182;-43
2021/04/05 12:22:37;;;;;;;2.55;1.77;;;;;;;11.97;31.12;98440.30;1749662;82;21166;-43
2021/04/05 12:25:07;;;;;;;2.30;1.60;;;;;;;12.08;30.68;98435.62;1749703;82;21664;-43
2021/04/05 12:27:39;;;;;;;2.83;1.80;;;;;;;12.34;30.29;98428.39;1750001;82;21370;-43
2021/04/05 12:30:11;;;;;;;2.95;1.80;;;;;;;12.53;29.73;98425.21;1749960;82;21771;-43
2021/04/05 12:32:39;;;;;;;2.77;1.82;;;;;;;12.77;29.61;98414.03;1749889;82;21026;-43